sensor_id;sensor_type;location;lat;lon;timestamp;P1;durP1;ratioP1;P2;durP2;ratioP2
4835;SDS011;66719;51.226;6.902;2023-03-14T00:00:18;13.73;;;2.50;;
4835;SDS011;66719;51.226;6.902;2023-03-14T00:02:45;10.00;;;1.90;;
4835;SDS011;66719;51.226;6.902;2023-03-14T00:05:11;14.03;;;2.87;;
4835;SDS011;66719;51.226;6.902;2023-03-14T00:07:38;11.87;;;2.40;;
4835;SDS011;66719;51.226;6.902;2023-03-14T00:10:09;13.37;;;2.97;;
4835;SDS011;66719;51.226;6.902;2023-03-14T00:12:38;12.50;;;2.50;;
4835;SDS011;66719;51.226;6.902;2023-03-14T00:15:06;13.07;;;2.43;;
4835;SDS011;66719;51.226;6.902;2023-03-14T00:17:34;14.23;;;2.20;;
4835;SDS011;66719;51.226;6.902;2023-03-14T00:20:02;10.83;;;2.20;;
4835;SDS011;66719;51.226;6.902;2023-03-14T00:22:31;12.53;;;2.13;;
4835;SDS011;66719;51.226;6.902;2023-03-14T00:24:58;11.30;;;2.40;;
4835;SDS011;66719;51.226;6.902;2023-03-14T00:27:24;11.87;;;2.30;;
4835;SDS011;66719;51.226;6.902;2023-03-14T00:29:51;11.10;;;2.10;;
4835;SDS011;66719;51.226;6.902;2023-03-14T00:32:17;13.10;;;2.37;;
4835;SDS011;66719;51.226;6.902;2023-03-14T00:34:44;13.90;;;2.60;;
4835;SDS011;66719;51.226;6.902;2023-03-14T00:37:10;13.93;;;2.60;;
4835;SDS011;66719;51.226;6.902;2023-03-14T00:39:37;14.47;;;2.90;;
4835;SDS011;66719;51.226;6.902;2023-03-14T00:42:03;17.03;;;2.53;;
4835;SDS011;66719;51.226;6.902;2023-03-14T00:44:30;19.90;;;3.20;;
4835;SDS011;66719;51.226;6.902;2023-03-14T00:46:57;17.50;;;2.83;;
4835;SDS011;66719;51.226;6.902;2023-03-14T00:49:24;12.77;;;2.30;;
4835;SDS011;66719;51.226;6.902;2023-03-14T00:51:51;14.90;;;2.60;;
4835;SDS011;66719;51.226;6.902;2023-03-14T00:54:21;14.00;;;2.50;;
4835;SDS011;66719;51.226;6.902;2023-03-14T00:56:47;14.83;;;2.13;;
4835;SDS011;66719;51.226;6.902;2023-03-14T00:59:15;14.20;;;2.23;;
4835;SDS011;66719;51.226;6.902;2023-03-14T01:01:42;15.10;;;2.13;;
4835;SDS011;66719;51.226;6.902;2023-03-14T01:04:08;15.03;;;2.47;;
4835;SDS011;66719;51.226;6.902;2023-03-14T01:06:35;17.40;;;2.40;;
4835;SDS011;66719;51.226;6.902;2023-03-14T01:09:01;15.33;;;1.90;;
4835;SDS011;66719;51.226;6.902;2023-03-14T01:11:29;12.20;;;2.07;;
4835;SDS011;66719;51.226;6.902;2023-03-14T01:13:58;11.50;;;1.53;;
4835;SDS011;66719;51.226;6.902;2023-03-14T01:16:25;11.93;;;1.90;;
4835;SDS011;66719;51.226;6.902;2023-03-14T01:18:54;10.93;;;1.73;;
4835;SDS011;66719;51.226;6.902;2023-03-14T01:21:25;9.87;;;1.87;;
4835;SDS011;66719;51.226;6.902;2023-03-14T01:23:54;11.40;;;2.03;;
4835;SDS011;66719;51.226;6.902;2023-03-14T01:26:23;10.57;;;1.90;;
4835;SDS011;66719;51.226;6.902;2023-03-14T01:28:52;13.70;;;1.93;;
4835;SDS011;66719;51.226;6.902;2023-03-14T01:31:20;11.27;;;2.13;;
4835;SDS011;66719;51.226;6.902;2023-03-14T01:33:46;13.67;;;2.27;;
4835;SDS011;66719;51.226;6.902;2023-03-14T01:36:13;11.57;;;1.90;;
4835;SDS011;66719;51.226;6.902;2023-03-14T01:38:39;13.37;;;2.10;;
4835;SDS011;66719;51.226;6.902;2023-03-14T01:41:07;11.50;;;2.20;;
4835;SDS011;66719;51.226;6.902;2023-03-14T01:43:37;10.30;;;1.70;;
4835;SDS011;66719;51.226;6.902;2023-03-14T01:48:32;10.30;;;1.67;;
4835;SDS011;66719;51.226;6.902;2023-03-14T01:51:07;14.87;;;2.27;;
4835;SDS011;66719;51.226;6.902;2023-03-14T01:53:38;10.90;;;1.97;;
4835;SDS011;66719;51.226;6.902;2023-03-14T01:56:07;11.73;;;1.93;;
4835;SDS011;66719;51.226;6.902;2023-03-14T01:58:38;11.27;;;2.03;;
4835;SDS011;66719;51.226;6.902;2023-03-14T02:01:07;11.97;;;1.93;;
4835;SDS011;66719;51.226;6.902;2023-03-14T02:03:38;13.10;;;2.10;;
4835;SDS011;66719;51.226;6.902;2023-03-14T02:06:11;10.87;;;2.87;;
4835;SDS011;66719;51.226;6.902;2023-03-14T02:08:40;11.83;;;2.50;;
4835;SDS011;66719;51.226;6.902;2023-03-14T02:11:07;10.47;;;1.67;;
4835;SDS011;66719;51.226;6.902;2023-03-14T02:13:34;10.73;;;2.10;;
4835;SDS011;66719;51.226;6.902;2023-03-14T02:16:00;13.37;;;2.70;;
4835;SDS011;66719;51.226;6.902;2023-03-14T02:18:27;10.90;;;1.93;;
4835;SDS011;66719;51.226;6.902;2023-03-14T02:21:01;13.13;;;2.30;;
4835;SDS011;66719;51.226;6.902;2023-03-14T02:23:57;12.93;;;2.57;;
4835;SDS011;66719;51.226;6.902;2023-03-14T02:26:42;14.73;;;2.20;;
4835;SDS011;66719;51.226;6.902;2023-03-14T02:29:11;14.00;;;2.20;;
4835;SDS011;66719;51.226;6.902;2023-03-14T02:31:38;17.10;;;2.47;;
4835;SDS011;66719;51.226;6.902;2023-03-14T02:34:05;14.23;;;2.43;;
4835;SDS011;66719;51.226;6.902;2023-03-14T02:36:32;14.53;;;2.00;;
4835;SDS011;66719;51.226;6.902;2023-03-14T02:39:10;12.90;;;2.10;;
4835;SDS011;66719;51.226;6.902;2023-03-14T02:41:42;15.50;;;2.53;;
4835;SDS011;66719;51.226;6.902;2023-03-14T02:44:11;15.57;;;2.90;;
4835;SDS011;66719;51.226;6.902;2023-03-14T02:46:38;11.90;;;1.83;;
4835;SDS011;66719;51.226;6.902;2023-03-14T02:49:05;15.23;;;2.33;;
4835;SDS011;66719;51.226;6.902;2023-03-14T02:51:34;14.90;;;2.30;;
4835;SDS011;66719;51.226;6.902;2023-03-14T02:54:01;9.93;;;1.73;;
4835;SDS011;66719;51.226;6.902;2023-03-14T02:56:28;11.63;;;1.80;;
4835;SDS011;66719;51.226;6.902;2023-03-14T02:58:55;10.77;;;1.80;;
4835;SDS011;66719;51.226;6.902;2023-03-14T03:01:24;12.70;;;2.57;;
4835;SDS011;66719;51.226;6.902;2023-03-14T03:03:50;12.90;;;1.70;;
4835;SDS011;66719;51.226;6.902;2023-03-14T03:06:17;13.80;;;1.90;;
4835;SDS011;66719;51.226;6.902;2023-03-14T03:08:43;10.87;;;1.70;;
4835;SDS011;66719;51.226;6.902;2023-03-14T03:11:10;10.07;;;1.70;;
4835;SDS011;66719;51.226;6.902;2023-03-14T03:13:36;10.33;;;1.80;;
4835;SDS011;66719;51.226;6.902;2023-03-14T03:16:03;13.27;;;2.10;;
4835;SDS011;66719;51.226;6.902;2023-03-14T03:18:30;9.30;;;1.80;;
4835;SDS011;66719;51.226;6.902;2023-03-14T03:20:59;12.50;;;2.13;;
4835;SDS011;66719;51.226;6.902;2023-03-14T03:23:27;9.00;;;1.90;;
4835;SDS011;66719;51.226;6.902;2023-03-14T03:25:53;13.03;;;2.57;;
4835;SDS011;66719;51.226;6.902;2023-03-14T03:28:20;10.80;;;1.93;;
4835;SDS011;66719;51.226;6.902;2023-03-14T03:30:46;9.00;;;1.60;;
4835;SDS011;66719;51.226;6.902;2023-03-14T03:33:13;12.03;;;1.80;;
4835;SDS011;66719;51.226;6.902;2023-03-14T03:35:44;11.37;;;1.77;;
4835;SDS011;66719;51.226;6.902;2023-03-14T03:38:15;12.90;;;2.47;;
4835;SDS011;66719;51.226;6.902;2023-03-14T03:40:42;9.43;;;1.80;;
4835;SDS011;66719;51.226;6.902;2023-03-14T03:43:09;17.70;;;2.10;;
4835;SDS011;66719;51.226;6.902;2023-03-14T03:45:35;11.20;;;2.37;;
4835;SDS011;66719;51.226;6.902;2023-03-14T03:48:02;14.40;;;2.40;;
4835;SDS011;66719;51.226;6.902;2023-03-14T03:50:29;15.50;;;2.50;;
4835;SDS011;66719;51.226;6.902;2023-03-14T03:52:55;8.83;;;2.03;;
4835;SDS011;66719;51.226;6.902;2023-03-14T03:55:22;13.73;;;2.20;;
4835;SDS011;66719;51.226;6.902;2023-03-14T03:57:48;15.70;;;2.95;;
4835;SDS011;66719;51.226;6.902;2023-03-14T04:00:15;15.40;;;2.77;;
4835;SDS011;66719;51.226;6.902;2023-03-14T04:02:41;11.03;;;2.33;;
4835;SDS011;66719;51.226;6.902;2023-03-14T04:05:08;13.50;;;2.93;;
4835;SDS011;66719;51.226;6.902;2023-03-14T04:07:34;14.20;;;2.23;;
4835;SDS011;66719;51.226;6.902;2023-03-14T04:10:01;16.43;;;2.73;;
4835;SDS011;66719;51.226;6.902;2023-03-14T04:12:28;17.17;;;2.97;;
4835;SDS011;66719;51.226;6.902;2023-03-14T04:14:54;12.33;;;2.20;;
4835;SDS011;66719;51.226;6.902;2023-03-14T04:17:21;10.00;;;2.23;;
4835;SDS011;66719;51.226;6.902;2023-03-14T04:19:48;19.23;;;2.30;;
4835;SDS011;66719;51.226;6.902;2023-03-14T04:22:17;11.10;;;2.13;;
4835;SDS011;66719;51.226;6.902;2023-03-14T04:24:43;12.37;;;2.33;;
4835;SDS011;66719;51.226;6.902;2023-03-14T04:27:10;11.83;;;1.97;;
4835;SDS011;66719;51.226;6.902;2023-03-14T04:29:36;12.77;;;2.23;;
4835;SDS011;66719;51.226;6.902;2023-03-14T04:32:03;14.13;;;2.27;;
4835;SDS011;66719;51.226;6.902;2023-03-14T04:34:29;11.93;;;2.50;;
4835;SDS011;66719;51.226;6.902;2023-03-14T04:36:56;16.40;;;3.40;;
4835;SDS011;66719;51.226;6.902;2023-03-14T04:39:22;10.23;;;2.17;;
4835;SDS011;66719;51.226;6.902;2023-03-14T04:41:49;15.70;;;2.47;;
4835;SDS011;66719;51.226;6.902;2023-03-14T04:44:15;10.07;;;2.57;;
4835;SDS011;66719;51.226;6.902;2023-03-14T04:46:42;11.00;;;2.47;;
4835;SDS011;66719;51.226;6.902;2023-03-14T04:49:08;12.40;;;2.20;;
4835;SDS011;66719;51.226;6.902;2023-03-14T04:51:35;11.60;;;2.70;;
4835;SDS011;66719;51.226;6.902;2023-03-14T04:54:01;10.37;;;2.47;;
4835;SDS011;66719;51.226;6.902;2023-03-14T04:56:28;14.53;;;2.67;;
4835;SDS011;66719;51.226;6.902;2023-03-14T04:58:54;10.50;;;2.77;;
4835;SDS011;66719;51.226;6.902;2023-03-14T05:01:21;17.27;;;2.47;;
4835;SDS011;66719;51.226;6.902;2023-03-14T05:03:48;13.63;;;2.17;;
4835;SDS011;66719;51.226;6.902;2023-03-14T05:06:14;13.70;;;2.20;;
4835;SDS011;66719;51.226;6.902;2023-03-14T05:08:40;14.03;;;2.50;;
4835;SDS011;66719;51.226;6.902;2023-03-14T05:11:09;16.33;;;2.67;;
4835;SDS011;66719;51.226;6.902;2023-03-14T05:13:36;14.63;;;2.63;;
4835;SDS011;66719;51.226;6.902;2023-03-14T05:16:06;10.40;;;2.43;;
4835;SDS011;66719;51.226;6.902;2023-03-14T05:18:33;16.70;;;2.60;;
4835;SDS011;66719;51.226;6.902;2023-03-14T05:21:00;11.77;;;2.33;;
4835;SDS011;66719;51.226;6.902;2023-03-14T05:23:27;15.00;;;2.67;;
4835;SDS011;66719;51.226;6.902;2023-03-14T05:25:53;10.87;;;2.07;;
4835;SDS011;66719;51.226;6.902;2023-03-14T05:28:20;18.10;;;2.80;;
4835;SDS011;66719;51.226;6.902;2023-03-14T05:30:47;13.80;;;2.10;;
4835;SDS011;66719;51.226;6.902;2023-03-14T05:33:13;17.70;;;1.93;;
4835;SDS011;66719;51.226;6.902;2023-03-14T05:35:40;11.60;;;1.67;;
4835;SDS011;66719;51.226;6.902;2023-03-14T05:38:08;11.40;;;1.90;;
4835;SDS011;66719;51.226;6.902;2023-03-14T05:40:34;9.30;;;1.60;;
4835;SDS011;66719;51.226;6.902;2023-03-14T05:43:05;10.80;;;1.97;;
4835;SDS011;66719;51.226;6.902;2023-03-14T05:45:34;13.20;;;1.67;;
4835;SDS011;66719;51.226;6.902;2023-03-14T05:48:01;8.20;;;2.00;;
4835;SDS011;66719;51.226;6.902;2023-03-14T05:50:28;10.63;;;2.00;;
4835;SDS011;66719;51.226;6.902;2023-03-14T05:52:54;8.57;;;1.60;;
4835;SDS011;66719;51.226;6.902;2023-03-14T05:55:21;6.47;;;1.20;;
4835;SDS011;66719;51.226;6.902;2023-03-14T05:57:47;7.30;;;1.40;;
4835;SDS011;66719;51.226;6.902;2023-03-14T06:00:14;11.37;;;1.60;;
4835;SDS011;66719;51.226;6.902;2023-03-14T06:02:40;7.67;;;1.40;;
4835;SDS011;66719;51.226;6.902;2023-03-14T06:05:07;7.73;;;1.50;;
4835;SDS011;66719;51.226;6.902;2023-03-14T06:07:34;8.27;;;1.30;;
4835;SDS011;66719;51.226;6.902;2023-03-14T06:10:00;7.33;;;1.37;;
4835;SDS011;66719;51.226;6.902;2023-03-14T06:12:27;7.03;;;1.27;;
4835;SDS011;66719;51.226;6.902;2023-03-14T06:14:54;6.93;;;1.33;;
4835;SDS011;66719;51.226;6.902;2023-03-14T06:17:20;6.77;;;1.20;;
4835;SDS011;66719;51.226;6.902;2023-03-14T06:19:47;11.00;;;1.33;;
4835;SDS011;66719;51.226;6.902;2023-03-14T06:22:13;7.53;;;1.20;;
4835;SDS011;66719;51.226;6.902;2023-03-14T06:24:40;9.17;;;1.23;;
4835;SDS011;66719;51.226;6.902;2023-03-14T06:27:07;8.63;;;1.80;;
4835;SDS011;66719;51.226;6.902;2023-03-14T06:29:33;6.37;;;1.30;;
4835;SDS011;66719;51.226;6.902;2023-03-14T06:32:00;7.77;;;1.60;;
4835;SDS011;66719;51.226;6.902;2023-03-14T06:34:26;6.80;;;1.20;;
4835;SDS011;66719;51.226;6.902;2023-03-14T06:36:52;7.97;;;1.40;;
4835;SDS011;66719;51.226;6.902;2023-03-14T06:39:19;7.63;;;1.27;;
4835;SDS011;66719;51.226;6.902;2023-03-14T06:41:46;6.90;;;1.27;;
4835;SDS011;66719;51.226;6.902;2023-03-14T06:44:12;7.13;;;1.60;;
4835;SDS011;66719;51.226;6.902;2023-03-14T06:46:39;6.30;;;1.30;;
4835;SDS011;66719;51.226;6.902;2023-03-14T06:49:05;7.90;;;1.40;;
4835;SDS011;66719;51.226;6.902;2023-03-14T06:51:32;6.20;;;1.40;;
4835;SDS011;66719;51.226;6.902;2023-03-14T06:53:59;8.07;;;1.47;;
4835;SDS011;66719;51.226;6.902;2023-03-14T06:56:25;6.77;;;1.10;;
4835;SDS011;66719;51.226;6.902;2023-03-14T06:58:52;5.60;;;1.10;;
4835;SDS011;66719;51.226;6.902;2023-03-14T07:01:25;6.30;;;1.30;;
4835;SDS011;66719;51.226;6.902;2023-03-14T07:03:53;8.33;;;1.30;;
4835;SDS011;66719;51.226;6.902;2023-03-14T07:06:20;6.43;;;1.53;;
4835;SDS011;66719;51.226;6.902;2023-03-14T07:08:47;7.10;;;1.13;;
4835;SDS011;66719;51.226;6.902;2023-03-14T07:11:14;10.93;;;2.13;;
4835;SDS011;66719;51.226;6.902;2023-03-14T07:13:40;7.60;;;1.60;;
4835;SDS011;66719;51.226;6.902;2023-03-14T07:16:07;6.63;;;1.27;;
4835;SDS011;66719;51.226;6.902;2023-03-14T07:18:34;6.03;;;1.27;;
4835;SDS011;66719;51.226;6.902;2023-03-14T07:21:01;7.50;;;1.20;;
4835;SDS011;66719;51.226;6.902;2023-03-14T07:23:27;5.80;;;1.20;;
4835;SDS011;66719;51.226;6.902;2023-03-14T07:25:54;5.83;;;1.30;;
4835;SDS011;66719;51.226;6.902;2023-03-14T07:28:20;5.67;;;1.10;;
4835;SDS011;66719;51.226;6.902;2023-03-14T07:30:47;7.80;;;1.30;;
4835;SDS011;66719;51.226;6.902;2023-03-14T07:33:14;6.57;;;1.37;;
4835;SDS011;66719;51.226;6.902;2023-03-14T07:35:41;8.10;;;1.93;;
4835;SDS011;66719;51.226;6.902;2023-03-14T07:38:08;8.90;;;1.50;;
4835;SDS011;66719;51.226;6.902;2023-03-14T07:40:34;6.37;;;1.40;;
4835;SDS011;66719;51.226;6.902;2023-03-14T07:43:01;6.43;;;1.20;;
4835;SDS011;66719;51.226;6.902;2023-03-14T07:45:27;6.40;;;1.50;;
4835;SDS011;66719;51.226;6.902;2023-03-14T07:47:54;7.07;;;1.20;;
4835;SDS011;66719;51.226;6.902;2023-03-14T07:50:24;10.00;;;1.40;;
4835;SDS011;66719;51.226;6.902;2023-03-14T07:52:52;7.10;;;1.73;;
4835;SDS011;66719;51.226;6.902;2023-03-14T07:55:18;7.53;;;1.50;;
4835;SDS011;66719;51.226;6.902;2023-03-14T07:57:45;5.97;;;1.10;;
4835;SDS011;66719;51.226;6.902;2023-03-14T08:00:11;6.60;;;1.40;;
4835;SDS011;66719;51.226;6.902;2023-03-14T08:02:41;8.10;;;1.20;;
4835;SDS011;66719;51.226;6.902;2023-03-14T08:05:08;6.50;;;1.20;;
4835;SDS011;66719;51.226;6.902;2023-03-14T08:07:35;5.70;;;1.20;;
4835;SDS011;66719;51.226;6.902;2023-03-14T08:10:02;5.50;;;1.00;;
4835;SDS011;66719;51.226;6.902;2023-03-14T08:12:29;6.10;;;1.20;;
4835;SDS011;66719;51.226;6.902;2023-03-14T08:14:56;10.53;;;1.30;;
4835;SDS011;66719;51.226;6.902;2023-03-14T08:17:22;6.10;;;1.30;;
4835;SDS011;66719;51.226;6.902;2023-03-14T08:19:48;7.30;;;1.30;;
4835;SDS011;66719;51.226;6.902;2023-03-14T08:22:15;5.80;;;1.40;;
4835;SDS011;66719;51.226;6.902;2023-03-14T08:24:45;7.23;;;1.30;;
4835;SDS011;66719;51.226;6.902;2023-03-14T08:27:11;7.27;;;1.53;;
4835;SDS011;66719;51.226;6.902;2023-03-14T08:29:38;9.73;;;1.60;;
4835;SDS011;66719;51.226;6.902;2023-03-14T08:32:06;7.57;;;1.70;;
4835;SDS011;66719;51.226;6.902;2023-03-14T08:34:33;7.20;;;1.60;;
4835;SDS011;66719;51.226;6.902;2023-03-14T08:37:00;7.50;;;1.70;;
4835;SDS011;66719;51.226;6.902;2023-03-14T08:39:29;6.07;;;1.47;;
4835;SDS011;66719;51.226;6.902;2023-03-14T08:41:56;6.70;;;1.50;;
4835;SDS011;66719;51.226;6.902;2023-03-14T08:44:22;6.90;;;1.33;;
4835;SDS011;66719;51.226;6.902;2023-03-14T08:46:49;6.97;;;1.50;;
4835;SDS011;66719;51.226;6.902;2023-03-14T08:49:15;10.27;;;1.40;;
4835;SDS011;66719;51.226;6.902;2023-03-14T08:51:42;6.60;;;1.63;;
4835;SDS011;66719;51.226;6.902;2023-03-14T08:54:11;7.13;;;1.63;;
4835;SDS011;66719;51.226;6.902;2023-03-14T08:56:38;6.30;;;1.50;;
4835;SDS011;66719;51.226;6.902;2023-03-14T08:59:05;8.60;;;2.10;;
4835;SDS011;66719;51.226;6.902;2023-03-14T09:01:31;6.50;;;2.00;;
4835;SDS011;66719;51.226;6.902;2023-03-14T09:03:58;8.87;;;1.67;;
4835;SDS011;66719;51.226;6.902;2023-03-14T09:06:25;7.67;;;2.33;;
4835;SDS011;66719;51.226;6.902;2023-03-14T09:08:51;7.93;;;1.80;;
4835;SDS011;66719;51.226;6.902;2023-03-14T09:11:17;9.60;;;2.13;;
4835;SDS011;66719;51.226;6.902;2023-03-14T09:13:44;7.23;;;1.90;;
4835;SDS011;66719;51.226;6.902;2023-03-14T09:16:11;8.10;;;1.70;;
4835;SDS011;66719;51.226;6.902;2023-03-14T09:18:37;6.37;;;1.57;;
4835;SDS011;66719;51.226;6.902;2023-03-14T09:21:04;7.77;;;1.43;;
4835;SDS011;66719;51.226;6.902;2023-03-14T09:23:31;6.73;;;1.60;;
4835;SDS011;66719;51.226;6.902;2023-03-14T09:25:58;6.10;;;1.40;;
4835;SDS011;66719;51.226;6.902;2023-03-14T09:28:25;6.80;;;1.40;;
4835;SDS011;66719;51.226;6.902;2023-03-14T09:30:53;8.27;;;1.70;;
4835;SDS011;66719;51.226;6.902;2023-03-14T09:33:20;6.40;;;1.40;;
4835;SDS011;66719;51.226;6.902;2023-03-14T09:35:48;6.67;;;1.27;;
4835;SDS011;66719;51.226;6.902;2023-03-14T09:38:14;7.03;;;1.00;;
4835;SDS011;66719;51.226;6.902;2023-03-14T09:40:42;5.87;;;1.00;;
4835;SDS011;66719;51.226;6.902;2023-03-14T09:43:09;6.20;;;1.20;;
4835;SDS011;66719;51.226;6.902;2023-03-14T09:45:40;7.90;;;1.20;;
4835;SDS011;66719;51.226;6.902;2023-03-14T09:48:12;6.67;;;1.00;;
4835;SDS011;66719;51.226;6.902;2023-03-14T09:50:43;6.53;;;1.20;;
4835;SDS011;66719;51.226;6.902;2023-03-14T09:53:13;7.47;;;1.07;;
4835;SDS011;66719;51.226;6.902;2023-03-14T09:55:43;6.07;;;0.93;;
4835;SDS011;66719;51.226;6.902;2023-03-14T09:58:21;6.60;;;1.23;;
4835;SDS011;66719;51.226;6.902;2023-03-14T10:00:50;6.77;;;1.33;;
4835;SDS011;66719;51.226;6.902;2023-03-14T10:05:46;7.00;;;1.40;;
4835;SDS011;66719;51.226;6.902;2023-03-14T10:08:13;6.20;;;1.43;;
4835;SDS011;66719;51.226;6.902;2023-03-14T10:10:40;6.30;;;1.43;;
4835;SDS011;66719;51.226;6.902;2023-03-14T10:15:39;7.70;;;1.70;;
4835;SDS011;66719;51.226;6.902;2023-03-14T10:18:10;7.20;;;2.00;;
4835;SDS011;66719;51.226;6.902;2023-03-14T10:20:39;6.20;;;1.60;;
4835;SDS011;66719;51.226;6.902;2023-03-14T10:25:58;6.77;;;1.40;;
4835;SDS011;66719;51.226;6.902;2023-03-14T10:28:40;6.47;;;1.70;;
4835;SDS011;66719;51.226;6.902;2023-03-14T10:31:13;7.10;;;1.70;;
4835;SDS011;66719;51.226;6.902;2023-03-14T10:33:41;6.30;;;1.50;;
4835;SDS011;66719;51.226;6.902;2023-03-14T10:36:19;7.30;;;1.60;;
4835;SDS011;66719;51.226;6.902;2023-03-14T10:38:49;6.70;;;1.43;;
4835;SDS011;66719;51.226;6.902;2023-03-14T10:41:17;6.70;;;1.90;;
4835;SDS011;66719;51.226;6.902;2023-03-14T10:43:50;6.40;;;1.70;;
4835;SDS011;66719;51.226;6.902;2023-03-14T10:46:19;6.37;;;1.47;;
4835;SDS011;66719;51.226;6.902;2023-03-14T10:48:46;6.53;;;1.70;;
4835;SDS011;66719;51.226;6.902;2023-03-14T10:53:46;7.37;;;1.60;;
4835;SDS011;66719;51.226;6.902;2023-03-14T10:56:19;7.83;;;1.60;;
4835;SDS011;66719;51.226;6.902;2023-03-14T10:58:48;6.40;;;1.60;;
4835;SDS011;66719;51.226;6.902;2023-03-14T11:04:02;9.40;;;1.80;;
4835;SDS011;66719;51.226;6.902;2023-03-14T11:21:13;8.37;;;2.77;;
4835;SDS011;66719;51.226;6.902;2023-03-14T11:26:37;10.80;;;2.37;;
4835;SDS011;66719;51.226;6.902;2023-03-14T11:32:13;9.00;;;2.40;;
4835;SDS011;66719;51.226;6.902;2023-03-14T11:37:26;8.70;;;2.03;;
4835;SDS011;66719;51.226;6.902;2023-03-14T11:42:45;10.53;;;2.40;;
4835;SDS011;66719;51.226;6.902;2023-03-14T11:45:18;8.93;;;2.10;;
4835;SDS011;66719;51.226;6.902;2023-03-14T11:48:07;9.60;;;3.07;;
4835;SDS011;66719;51.226;6.902;2023-03-14T11:50:46;14.60;;;3.77;;
4835;SDS011;66719;51.226;6.902;2023-03-14T11:55:49;10.33;;;3.50;;
4835;SDS011;66719;51.226;6.902;2023-03-14T11:58:19;15.80;;;4.07;;
4835;SDS011;66719;51.226;6.902;2023-03-14T12:00:50;9.90;;;3.70;;
4835;SDS011;66719;51.226;6.902;2023-03-14T12:09:02;7.70;;;2.40;;
4835;SDS011;66719;51.226;6.902;2023-03-14T12:11:32;9.10;;;2.50;;
4835;SDS011;66719;51.226;6.902;2023-03-14T12:13:59;10.17;;;2.40;;
4835;SDS011;66719;51.226;6.902;2023-03-14T12:16:32;10.97;;;1.93;;
4835;SDS011;66719;51.226;6.902;2023-03-14T12:21:53;9.07;;;2.47;;
4835;SDS011;66719;51.226;6.902;2023-03-14T12:24:28;10.43;;;2.77;;
4835;SDS011;66719;51.226;6.902;2023-03-14T12:27:01;11.33;;;2.60;;
4835;SDS011;66719;51.226;6.902;2023-03-14T12:29:29;9.80;;;2.30;;
4835;SDS011;66719;51.226;6.902;2023-03-14T12:34:50;11.50;;;2.33;;
4835;SDS011;66719;51.226;6.902;2023-03-14T12:37:29;17.00;;;3.90;;
4835;SDS011;66719;51.226;6.902;2023-03-14T12:40:10;13.20;;;2.30;;
4835;SDS011;66719;51.226;6.902;2023-03-14T12:42:51;10.87;;;2.17;;
4835;SDS011;66719;51.226;6.902;2023-03-14T12:47:54;15.70;;;3.07;;
4835;SDS011;66719;51.226;6.902;2023-03-14T12:50:46;15.60;;;3.13;;
4835;SDS011;66719;51.226;6.902;2023-03-14T12:56:38;14.53;;;4.00;;
4835;SDS011;66719;51.226;6.902;2023-03-14T13:02:23;21.93;;;3.10;;
4835;SDS011;66719;51.226;6.902;2023-03-14T13:04:50;11.93;;;2.43;;
4835;SDS011;66719;51.226;6.902;2023-03-14T13:10:18;16.50;;;3.13;;
4835;SDS011;66719;51.226;6.902;2023-03-14T13:15:54;15.97;;;2.80;;
4835;SDS011;66719;51.226;6.902;2023-03-14T13:18:45;16.40;;;3.27;;
4835;SDS011;66719;51.226;6.902;2023-03-14T13:26:39;21.40;;;3.87;;
4835;SDS011;66719;51.226;6.902;2023-03-14T13:29:09;20.57;;;4.50;;
4835;SDS011;66719;51.226;6.902;2023-03-14T13:31:52;23.93;;;5.10;;
4835;SDS011;66719;51.226;6.902;2023-03-14T13:34:21;23.40;;;3.77;;
4835;SDS011;66719;51.226;6.902;2023-03-14T13:36:51;26.53;;;4.30;;
4835;SDS011;66719;51.226;6.902;2023-03-14T13:39:24;17.80;;;3.60;;
4835;SDS011;66719;51.226;6.902;2023-03-14T13:41:53;20.80;;;4.23;;
4835;SDS011;66719;51.226;6.902;2023-03-14T13:44:25;24.30;;;4.30;;
4835;SDS011;66719;51.226;6.902;2023-03-14T13:46:57;18.70;;;3.87;;
4835;SDS011;66719;51.226;6.902;2023-03-14T13:49:25;16.90;;;3.10;;
4835;SDS011;66719;51.226;6.902;2023-03-14T13:51:52;19.70;;;3.60;;
4835;SDS011;66719;51.226;6.902;2023-03-14T13:54:20;22.53;;;3.80;;
4835;SDS011;66719;51.226;6.902;2023-03-14T13:56:48;18.43;;;4.00;;
4835;SDS011;66719;51.226;6.902;2023-03-14T13:59:25;24.33;;;3.10;;
4835;SDS011;66719;51.226;6.902;2023-03-14T14:01:56;23.77;;;3.10;;
4835;SDS011;66719;51.226;6.902;2023-03-14T14:04:25;29.00;;;4.37;;
4835;SDS011;66719;51.226;6.902;2023-03-14T14:06:57;19.53;;;4.23;;
4835;SDS011;66719;51.226;6.902;2023-03-14T14:09:59;24.80;;;3.90;;
4835;SDS011;66719;51.226;6.902;2023-03-14T14:12:38;21.47;;;3.80;;
4835;SDS011;66719;51.226;6.902;2023-03-14T14:15:21;30.17;;;4.70;;
4835;SDS011;66719;51.226;6.902;2023-03-14T14:18:04;27.10;;;4.27;;
4835;SDS011;66719;51.226;6.902;2023-03-14T14:20:33;31.33;;;4.47;;
4835;SDS011;66719;51.226;6.902;2023-03-14T14:23:06;30.83;;;4.30;;
4835;SDS011;66719;51.226;6.902;2023-03-14T14:25:36;22.50;;;4.87;;
4835;SDS011;66719;51.226;6.902;2023-03-14T14:31:15;31.47;;;5.40;;
4835;SDS011;66719;51.226;6.902;2023-03-14T14:36:19;26.93;;;4.20;;
4835;SDS011;66719;51.226;6.902;2023-03-14T14:38:49;23.60;;;3.80;;
4835;SDS011;66719;51.226;6.902;2023-03-14T14:41:26;21.20;;;3.37;;
4835;SDS011;66719;51.226;6.902;2023-03-14T14:43:54;32.90;;;4.13;;
4835;SDS011;66719;51.226;6.902;2023-03-14T14:46:22;20.87;;;3.80;;
4835;SDS011;66719;51.226;6.902;2023-03-14T14:48:48;21.70;;;4.03;;
4835;SDS011;66719;51.226;6.902;2023-03-14T14:51:25;18.60;;;3.10;;
4835;SDS011;66719;51.226;6.902;2023-03-14T14:54:04;19.93;;;3.50;;
4835;SDS011;66719;51.226;6.902;2023-03-14T14:56:37;23.83;;;2.70;;
4835;SDS011;66719;51.226;6.902;2023-03-14T14:59:05;16.93;;;2.80;;
4835;SDS011;66719;51.226;6.902;2023-03-14T15:01:39;21.80;;;3.00;;
4835;SDS011;66719;51.226;6.902;2023-03-14T15:04:09;16.40;;;3.50;;
4835;SDS011;66719;51.226;6.902;2023-03-14T15:06:42;15.20;;;2.80;;
4835;SDS011;66719;51.226;6.902;2023-03-14T15:09:10;17.77;;;3.17;;
4835;SDS011;66719;51.226;6.902;2023-03-14T15:11:37;20.03;;;4.10;;
4835;SDS011;66719;51.226;6.902;2023-03-14T15:14:04;19.30;;;4.20;;
4835;SDS011;66719;51.226;6.902;2023-03-14T15:16:33;26.90;;;3.40;;
4835;SDS011;66719;51.226;6.902;2023-03-14T15:19:01;23.13;;;3.80;;
4835;SDS011;66719;51.226;6.902;2023-03-14T15:21:49;20.00;;;3.17;;
4835;SDS011;66719;51.226;6.902;2023-03-14T15:24:15;20.73;;;4.00;;
4835;SDS011;66719;51.226;6.902;2023-03-14T15:26:42;23.20;;;3.93;;
4835;SDS011;66719;51.226;6.902;2023-03-14T15:29:11;23.30;;;3.47;;
4835;SDS011;66719;51.226;6.902;2023-03-14T15:31:39;38.73;;;4.07;;
4835;SDS011;66719;51.226;6.902;2023-03-14T15:34:06;19.23;;;3.30;;
4835;SDS011;66719;51.226;6.902;2023-03-14T15:36:33;22.23;;;3.53;;
4835;SDS011;66719;51.226;6.902;2023-03-14T15:39:01;16.10;;;3.03;;
4835;SDS011;66719;51.226;6.902;2023-03-14T15:41:29;21.47;;;3.23;;
4835;SDS011;66719;51.226;6.902;2023-03-14T15:43:56;18.87;;;3.13;;
4835;SDS011;66719;51.226;6.902;2023-03-14T15:46:22;16.90;;;3.17;;
4835;SDS011;66719;51.226;6.902;2023-03-14T15:48:50;29.33;;;3.70;;
4835;SDS011;66719;51.226;6.902;2023-03-14T15:51:17;16.73;;;3.50;;
4835;SDS011;66719;51.226;6.902;2023-03-14T15:53:44;17.30;;;2.80;;
4835;SDS011;66719;51.226;6.902;2023-03-14T15:56:12;18.10;;;3.00;;
4835;SDS011;66719;51.226;6.902;2023-03-14T15:58:44;19.93;;;3.20;;
4835;SDS011;66719;51.226;6.902;2023-03-14T16:01:14;18.43;;;2.80;;
4835;SDS011;66719;51.226;6.902;2023-03-14T16:03:44;17.73;;;3.20;;
4835;SDS011;66719;51.226;6.902;2023-03-14T16:06:11;16.90;;;2.73;;
4835;SDS011;66719;51.226;6.902;2023-03-14T16:08:38;21.20;;;2.80;;
4835;SDS011;66719;51.226;6.902;2023-03-14T16:11:05;18.40;;;2.97;;
4835;SDS011;66719;51.226;6.902;2023-03-14T16:13:31;18.83;;;3.00;;
4835;SDS011;66719;51.226;6.902;2023-03-14T16:16:02;17.03;;;3.03;;
4835;SDS011;66719;51.226;6.902;2023-03-14T16:18:34;17.60;;;2.80;;
4835;SDS011;66719;51.226;6.902;2023-03-14T16:21:04;19.53;;;2.53;;
4835;SDS011;66719;51.226;6.902;2023-03-14T16:23:37;15.37;;;2.70;;